createdAt,value
2017-09-07T00:00:30.641Z,14.45
2017-09-07T00:02:59.030Z,14.47
2017-09-07T00:05:27.353Z,14.48
2017-09-07T00:07:55.696Z,14.49
2017-09-07T00:10:24.041Z,14.50
2017-09-07T00:12:52.374Z,14.52
2017-09-07T00:16:00.824Z,14.52
2017-09-07T00:18:29.919Z,14.43
2017-09-07T00:20:59.050Z,14.45
2017-09-07T00:23:27.364Z,14.50
2017-09-07T00:25:56.095Z,14.48
2017-09-07T00:28:24.443Z,14.41
2017-09-07T00:30:52.782Z,14.38
2017-09-07T00:33:21.151Z,14.48
2017-09-07T00:35:49.476Z,14.47
2017-09-07T00:38:17.841Z,14.42
2017-09-07T00:40:48.117Z,14.42
2017-09-07T00:43:17.223Z,14.43
2017-09-07T00:45:45.565Z,14.45
2017-09-07T00:48:13.898Z,14.46
2017-09-07T00:50:42.265Z,14.36
2017-09-07T00:53:10.594Z,14.33
2017-09-07T00:55:39.882Z,14.36
2017-09-07T00:58:08.331Z,14.28
2017-09-07T01:00:36.676Z,14.20
2017-09-07T01:03:05.795Z,14.35
2017-09-07T01:05:36.213Z,14.31
2017-09-07T01:08:05.343Z,14.36
2017-09-07T01:10:33.674Z,14.33
2017-09-07T01:13:02.021Z,14.30
2017-09-07T01:15:30.347Z,14.24
2017-09-07T01:17:59.496Z,14.24
2017-09-07T01:20:27.838Z,14.16
2017-09-07T01:22:56.165Z,14.13
2017-09-07T01:25:24.499Z,14.11
2017-09-07T01:27:53.097Z,14.15
2017-09-07T01:30:21.455Z,14.17
2017-09-07T01:32:49.762Z,14.19
2017-09-07T01:35:18.110Z,14.18
2017-09-07T01:37:47.227Z,14.05
2017-09-07T01:40:15.686Z,14.02
2017-09-07T01:42:44.046Z,13.99
2017-09-07T01:45:12.371Z,14.00
2017-09-07T01:47:40.709Z,13.90
2017-09-07T01:50:09.032Z,13.92
2017-09-07T01:52:37.366Z,13.94
2017-09-07T01:55:05.704Z,14.04
2017-09-07T01:57:34.034Z,14.08
2017-09-07T02:00:02.378Z,14.15
2017-09-07T02:02:30.698Z,14.28
2017-09-07T02:04:59.066Z,14.15
2017-09-07T02:07:28.158Z,14.05
2017-09-07T02:09:56.617Z,14.17
2017-09-07T02:12:24.968Z,14.28
2017-09-07T02:14:53.297Z,14.16
2017-09-07T02:17:22.435Z,13.97
2017-09-07T02:19:50.770Z,13.88
2017-09-07T02:22:19.114Z,14.08
2017-09-07T02:24:47.454Z,14.16
2017-09-07T02:27:15.802Z,14.00
2017-09-07T02:29:44.139Z,13.96
2017-09-07T02:32:12.451Z,14.02
2017-09-07T02:34:42.290Z,14.05
2017-09-07T02:37:10.607Z,14.10
2017-09-07T02:39:38.944Z,14.07
2017-09-07T02:42:08.048Z,14.01
2017-09-07T02:44:36.656Z,14.03
2017-09-07T02:47:05.011Z,13.92
2017-09-07T02:49:34.149Z,13.93
2017-09-07T02:52:02.526Z,13.92
2017-09-07T02:54:30.853Z,13.98
2017-09-07T02:56:59.981Z,13.84
2017-09-07T02:59:28.453Z,13.92
2017-09-07T03:01:57.849Z,13.91
2017-09-07T03:04:26.181Z,13.93
2017-09-07T03:06:55.263Z,13.98
2017-09-07T03:09:23.622Z,14.04
2017-09-07T03:11:51.945Z,13.99
2017-09-07T03:14:20.282Z,13.99
2017-09-07T03:16:48.602Z,13.92
2017-09-07T03:19:16.953Z,13.90
2017-09-07T03:21:45.288Z,13.97
2017-09-07T03:24:13.608Z,13.87
2017-09-07T03:26:41.935Z,13.87
2017-09-07T03:29:10.268Z,13.87
2017-09-07T03:31:38.912Z,13.91
2017-09-07T03:34:08.031Z,13.88
2017-09-07T03:36:36.364Z,13.85
2017-09-07T03:39:04.694Z,13.91
2017-09-07T03:41:33.768Z,13.95
2017-09-07T03:44:02.102Z,13.93
2017-09-07T03:46:30.441Z,13.90
2017-09-07T03:48:59.844Z,13.88
2017-09-07T03:51:28.164Z,13.98
2017-09-07T03:53:56.482Z,14.06
2017-09-07T03:56:24.828Z,13.98
2017-09-07T03:58:53.138Z,13.98
2017-09-07T04:01:21.466Z,13.97
2017-09-07T04:03:49.780Z,14.02
2017-09-07T04:06:18.379Z,13.96
2017-09-07T04:08:47.097Z,13.94
2017-09-07T04:11:15.414Z,13.98
2017-09-07T04:13:43.757Z,14.06
2017-09-07T04:16:12.092Z,13.94
2017-09-07T04:18:41.940Z,13.91
2017-09-07T04:21:10.356Z,13.94
2017-09-07T04:23:39.008Z,14.01
2017-09-07T04:26:08.089Z,13.99
2017-09-07T04:28:37.068Z,14.09
2017-09-07T04:31:05.406Z,13.86
2017-09-07T04:33:33.733Z,13.92
2017-09-07T04:36:03.287Z,13.84
2017-09-07T04:38:31.616Z,13.81
2017-09-07T04:41:01.046Z,13.87
2017-09-07T04:43:29.375Z,13.73
2017-09-07T04:45:57.690Z,13.72
2017-09-07T04:48:26.820Z,13.85
2017-09-07T04:50:55.190Z,13.92
2017-09-07T04:53:24.287Z,13.95
2017-09-07T04:55:52.623Z,13.93
2017-09-07T04:58:20.994Z,13.96
2017-09-07T05:00:49.336Z,13.80
2017-09-07T05:03:17.668Z,13.73
2017-09-07T05:05:46.005Z,13.77
2017-09-07T05:08:14.336Z,13.80
2017-09-07T05:10:42.684Z,13.77
2017-09-07T05:13:11.018Z,13.74
2017-09-07T05:15:39.369Z,13.78
2017-09-07T05:18:07.706Z,13.86
2017-09-07T05:20:36.034Z,13.88
2017-09-07T05:23:04.384Z,13.96
2017-09-07T05:25:32.702Z,13.89
2017-09-07T05:28:01.794Z,13.93
2017-09-07T05:30:30.882Z,13.86
2017-09-07T05:32:59.487Z,13.93
2017-09-07T05:35:27.829Z,13.96
2017-09-07T05:37:56.167Z,13.88
2017-09-07T05:40:24.522Z,13.88
2017-09-07T05:42:53.624Z,13.84
2017-09-07T05:45:21.965Z,13.92
2017-09-07T05:47:50.304Z,14.00
2017-09-07T05:50:18.650Z,14.04
2017-09-07T05:52:47.001Z,14.06
2017-09-07T05:55:15.333Z,14.17
2017-09-07T05:57:43.675Z,14.15
2017-09-07T06:00:12.003Z,14.19
2017-09-07T06:02:40.334Z,14.18
2017-09-07T06:05:08.663Z,14.25
2017-09-07T06:07:37.019Z,14.26
2017-09-07T06:10:05.392Z,14.25
2017-09-07T06:12:34.489Z,14.21
2017-09-07T06:15:03.590Z,14.25
2017-09-07T06:17:32.654Z,14.27
2017-09-07T06:20:02.004Z,14.28
2017-09-07T06:22:30.349Z,14.30
2017-09-07T06:24:58.700Z,14.22
2017-09-07T06:27:27.042Z,14.35
2017-09-07T06:29:55.356Z,14.32
2017-09-07T06:32:23.703Z,14.32
2017-09-07T06:34:52.023Z,14.39
2017-09-07T06:37:20.735Z,14.46
2017-09-07T06:39:49.064Z,14.44
2017-09-07T06:42:17.405Z,14.40
2017-09-07T06:44:46.524Z,14.40
2017-09-07T06:47:14.843Z,14.52
2017-09-07T06:49:43.184Z,14.54
2017-09-07T06:52:11.586Z,14.69
2017-09-07T06:54:39.922Z,14.80
2017-09-07T06:57:09.031Z,14.83
2017-09-07T06:59:37.363Z,14.91
2017-09-07T07:02:05.717Z,14.97
2017-09-07T07:04:34.084Z,15.03
2017-09-07T07:07:02.436Z,15.05
2017-09-07T07:09:30.824Z,15.09
2017-09-07T07:11:59.142Z,15.17
2017-09-07T07:14:27.478Z,15.20
2017-09-07T07:16:55.808Z,15.21
2017-09-07T07:19:24.154Z,15.29
2017-09-07T07:21:52.484Z,15.23
2017-09-07T07:24:20.822Z,15.34
2017-09-07T07:26:49.225Z,15.32
2017-09-07T07:29:17.543Z,15.28
2017-09-07T07:31:46.654Z,15.26
2017-09-07T07:34:14.984Z,15.17
2017-09-07T07:36:43.693Z,15.20
2017-09-07T07:39:12.043Z,15.27
2017-09-07T07:41:40.359Z,15.42
2017-09-07T07:44:09.471Z,15.43
2017-09-07T07:46:37.787Z,15.44
2017-09-07T07:49:06.127Z,15.41
2017-09-07T07:51:34.465Z,15.46
2017-09-07T07:54:02.806Z,15.52
2017-09-07T07:56:31.127Z,15.51
2017-09-07T07:58:59.507Z,15.48
2017-09-07T08:01:27.846Z,15.60
2017-09-07T08:03:56.176Z,15.61
2017-09-07T08:06:24.527Z,15.68
2017-09-07T08:08:52.925Z,15.74
2017-09-07T08:11:21.293Z,15.80
2017-09-07T08:13:49.649Z,15.93
2017-09-07T08:16:17.963Z,16.12
2017-09-07T08:18:47.118Z,16.20
2017-09-07T08:21:15.438Z,16.30
2017-09-07T08:23:43.791Z,16.39
2017-09-07T08:26:12.120Z,16.43
2017-09-07T08:28:41.507Z,16.55
2017-09-07T08:31:09.848Z,16.66
2017-09-07T08:33:38.167Z,16.74
2017-09-07T08:36:06.733Z,16.75
2017-09-07T08:38:35.057Z,16.77
2017-09-07T08:41:03.400Z,16.74
2017-09-07T08:43:31.732Z,16.75
2017-09-07T08:46:00.072Z,16.76
2017-09-07T08:48:28.408Z,16.77
2017-09-07T08:50:57.256Z,16.84
2017-09-07T08:53:25.588Z,16.91
2017-09-07T08:55:53.902Z,17.05
2017-09-07T08:58:22.241Z,17.10
2017-09-07T09:00:50.579Z,17.24
2017-09-07T09:03:18.944Z,17.21
2017-09-07T09:05:47.285Z,17.22
2017-09-07T09:08:15.653Z,17.35
2017-09-07T09:10:43.994Z,17.36
2017-09-07T09:13:12.311Z,17.35
2017-09-07T09:15:40.647Z,17.40
2017-09-07T09:18:09.740Z,17.35
2017-09-07T09:20:38.090Z,17.38
2017-09-07T09:23:06.429Z,17.41
2017-09-07T09:25:35.203Z,17.52
2017-09-07T09:28:03.542Z,17.59
2017-09-07T09:30:31.895Z,17.61
2017-09-07T09:33:00.576Z,17.60
2017-09-07T09:35:28.900Z,17.70
2017-09-07T09:37:57.249Z,17.62
2017-09-07T09:40:25.585Z,17.58
2017-09-07T09:42:54.473Z,17.62
2017-09-07T09:45:22.815Z,17.62
2017-09-07T09:47:51.150Z,17.66
2017-09-07T09:50:19.512Z,17.65
2017-09-07T09:52:48.616Z,17.67
2017-09-07T09:55:16.959Z,17.73
2017-09-07T09:57:45.284Z,17.78
2017-09-07T10:00:14.060Z,17.87
2017-09-07T10:02:42.371Z,17.99
2017-09-07T10:05:10.701Z,17.98
2017-09-07T10:07:39.799Z,17.98
2017-09-07T10:10:08.135Z,18.08
2017-09-07T10:12:37.543Z,18.05
2017-09-07T10:15:05.919Z,17.99
2017-09-07T10:17:34.285Z,18.06
2017-09-07T10:20:02.603Z,18.08
2017-09-07T10:22:30.961Z,18.16
2017-09-07T10:24:59.316Z,18.16
2017-09-07T10:27:28.381Z,18.11
2017-09-07T10:29:56.714Z,18.21
2017-09-07T10:32:25.036Z,18.32
2017-09-07T10:34:54.434Z,18.37
2017-09-07T10:37:22.781Z,18.34
2017-09-07T10:39:51.120Z,18.30
2017-09-07T10:42:19.463Z,18.44
2017-09-07T10:44:47.783Z,18.44
2017-09-07T10:47:16.154Z,18.42
2017-09-07T10:49:44.489Z,18.52
2017-09-07T10:52:12.828Z,18.53
2017-09-07T10:54:41.183Z,18.42
2017-09-07T10:57:09.500Z,18.47
2017-09-07T10:59:37.849Z,18.50
2017-09-07T11:02:06.182Z,18.52
2017-09-07T11:04:34.541Z,18.45
2017-09-07T11:07:02.871Z,18.60
2017-09-07T11:09:31.747Z,18.68
2017-09-07T11:12:00.080Z,18.62
2017-09-07T11:14:28.406Z,18.70
2017-09-07T11:16:56.765Z,18.66
2017-09-07T11:19:25.090Z,18.64
2017-09-07T11:21:54.212Z,18.72
2017-09-07T11:24:22.534Z,18.69
2017-09-07T11:26:50.871Z,18.72
2017-09-07T11:29:19.220Z,18.72
2017-09-07T11:31:48.316Z,18.74
2017-09-07T11:34:17.440Z,18.71
2017-09-07T11:36:45.793Z,18.74
2017-09-07T11:39:14.153Z,18.77
2017-09-07T11:41:42.488Z,18.73
2017-09-07T11:44:10.833Z,18.79
2017-09-07T11:46:39.200Z,18.81
2017-09-07T11:49:08.295Z,18.82
2017-09-07T11:51:36.643Z,18.87
2017-09-07T11:54:04.967Z,18.93
2017-09-07T11:56:34.997Z,18.99
2017-09-07T11:59:03.330Z,19.01
2017-09-07T12:01:31.644Z,18.92
2017-09-07T12:04:00.009Z,18.81
2017-09-07T12:06:28.344Z,18.78
2017-09-07T12:08:56.700Z,18.70
2017-09-07T12:11:25.026Z,18.66
2017-09-07T12:13:53.952Z,18.59
2017-09-07T12:16:22.271Z,18.53
2017-09-07T12:18:50.614Z,18.30
2017-09-07T12:21:19.723Z,18.32
2017-09-07T12:23:48.061Z,18.32
2017-09-07T12:26:16.412Z,18.18
2017-09-07T12:28:44.765Z,18.18
2017-09-07T12:31:13.111Z,18.30
2017-09-07T12:33:42.239Z,18.30
2017-09-07T12:36:10.571Z,18.49
2017-09-07T12:38:38.941Z,18.62
2017-09-07T12:41:07.296Z,18.59
2017-09-07T12:43:35.623Z,18.62
2017-09-07T12:46:04.734Z,18.69
2017-09-07T12:48:33.070Z,18.70
2017-09-07T12:51:01.432Z,18.81
2017-09-07T12:53:29.782Z,18.82
2017-09-07T12:55:58.168Z,18.74
2017-09-07T12:58:26.533Z,18.72
2017-09-07T13:00:55.621Z,18.69
2017-09-07T13:03:23.974Z,18.65
2017-09-07T13:05:52.322Z,18.81
2017-09-07T13:08:20.716Z,18.79
2017-09-07T13:10:49.467Z,18.86
2017-09-07T13:13:17.815Z,18.83
2017-09-07T13:15:46.166Z,18.88
2017-09-07T13:18:14.511Z,18.90
2017-09-07T13:20:43.163Z,18.89
2017-09-07T13:23:12.256Z,18.92
2017-09-07T13:25:40.600Z,18.92
2017-09-07T13:28:08.950Z,19.03
2017-09-07T13:30:37.284Z,19.22
2017-09-07T13:33:05.627Z,19.33
2017-09-07T13:35:33.959Z,19.44
2017-09-07T13:38:02.302Z,19.45
2017-09-07T13:40:30.644Z,19.48
2017-09-07T13:42:58.974Z,19.37
2017-09-07T13:45:27.326Z,19.27
2017-09-07T13:47:55.664Z,19.19
2017-09-07T13:50:24.764Z,19.14
2017-09-07T13:52:53.105Z,19.16
2017-09-07T13:55:21.428Z,19.17
2017-09-07T13:57:50.555Z,19.22
2017-09-07T14:00:18.894Z,19.13
2017-09-07T14:02:47.268Z,19.15
2017-09-07T14:05:15.619Z,19.13
2017-09-07T14:07:43.988Z,19.31
2017-09-07T14:10:12.335Z,19.30
2017-09-07T14:12:40.661Z,19.28
2017-09-07T14:15:09.016Z,19.34
2017-09-07T14:17:37.358Z,19.57
2017-09-07T14:20:06.118Z,19.80
2017-09-07T14:22:34.467Z,20.13
2017-09-07T14:25:02.796Z,20.20
2017-09-07T14:27:31.143Z,20.27
2017-09-07T14:30:00.104Z,20.23
2017-09-07T14:32:28.734Z,20.05
2017-09-07T14:34:57.073Z,19.91
2017-09-07T14:37:25.396Z,19.84
2017-09-07T14:39:53.742Z,19.74
2017-09-07T14:42:22.066Z,19.65
2017-09-07T14:44:50.411Z,19.56
2017-09-07T14:47:19.120Z,19.47
2017-09-07T14:49:47.801Z,19.42
2017-09-07T14:52:16.151Z,19.45
2017-09-07T14:54:44.484Z,19.53
2017-09-07T14:57:12.848Z,19.59
2017-09-07T14:59:41.183Z,19.56
2017-09-07T15:02:09.549Z,19.45
2017-09-07T15:04:37.870Z,19.36
2017-09-07T15:07:06.231Z,19.45
2017-09-07T15:09:34.572Z,19.47
2017-09-07T15:12:02.898Z,19.39
2017-09-07T15:14:31.245Z,19.42
2017-09-07T15:16:59.580Z,19.38
2017-09-07T15:19:27.947Z,19.28
2017-09-07T15:22:05.430Z,19.25
2017-09-07T15:24:34.251Z,19.23
2017-09-07T15:27:02.589Z,19.23
2017-09-07T15:29:30.946Z,19.16
2017-09-07T15:31:59.296Z,19.13
2017-09-07T15:34:28.404Z,19.06
2017-09-07T15:36:57.944Z,19.03
2017-09-07T15:39:27.219Z,19.02
2017-09-07T15:41:57.265Z,18.97
2017-09-07T15:44:25.592Z,18.95
2017-09-07T15:46:53.931Z,18.93
2017-09-07T15:49:22.314Z,18.93
2017-09-07T15:51:50.647Z,18.91
2017-09-07T15:54:19.774Z,18.86
2017-09-07T15:56:48.160Z,18.82
2017-09-07T15:59:16.522Z,18.82
2017-09-07T16:01:44.892Z,18.75
2017-09-07T16:04:13.246Z,18.74
2017-09-07T16:06:41.602Z,18.74
2017-09-07T16:09:09.926Z,18.70
2017-09-07T16:11:39.050Z,18.72
2017-09-07T16:14:07.382Z,18.69
2017-09-07T16:16:36.045Z,18.66
2017-09-07T16:21:32.135Z,18.72
2017-09-07T16:24:01.254Z,18.71
2017-09-07T16:26:29.575Z,18.65
2017-09-07T16:28:57.921Z,18.60
2017-09-07T16:31:27.212Z,18.58
2017-09-07T16:33:55.545Z,18.56
2017-09-07T16:36:23.905Z,18.57
2017-09-07T16:38:53.157Z,18.59
2017-09-07T16:41:21.496Z,18.59
2017-09-07T16:43:49.830Z,18.56
2017-09-07T16:46:18.168Z,18.53
2017-09-07T16:48:46.580Z,18.48
2017-09-07T16:51:14.928Z,18.44
2017-09-07T16:53:43.626Z,18.35
2017-09-07T16:56:11.980Z,18.32
2017-09-07T16:58:48.404Z,18.26
2017-09-07T17:01:17.044Z,18.22
2017-09-07T17:03:45.681Z,18.20
2017-09-07T17:06:14.012Z,18.13
2017-09-07T17:08:42.346Z,18.08
2017-09-07T17:11:10.695Z,18.02
2017-09-07T17:13:39.031Z,17.93
2017-09-07T17:16:07.639Z,18.01
2017-09-07T17:18:35.964Z,17.99
2017-09-07T17:21:04.294Z,18.02
2017-09-07T17:23:33.494Z,18.04
2017-09-07T17:26:01.839Z,18.04
2017-09-07T17:28:30.208Z,17.94
2017-09-07T17:30:58.532Z,17.83
2017-09-07T17:33:27.429Z,17.85
2017-09-07T17:35:58.442Z,17.82
2017-09-07T17:38:26.776Z,17.67
2017-09-07T17:40:55.132Z,17.76
2017-09-07T17:43:23.767Z,17.71
2017-09-07T17:45:53.648Z,17.57
2017-09-07T17:48:22.028Z,17.66
2017-09-07T17:50:50.416Z,17.64
2017-09-07T17:53:18.942Z,17.59
2017-09-07T17:55:47.285Z,17.50
2017-09-07T17:58:15.636Z,17.52
2017-09-07T18:00:43.965Z,17.50
2017-09-07T18:03:12.323Z,17.55
2017-09-07T18:05:40.648Z,17.42
2017-09-07T18:08:10.932Z,17.45
2017-09-07T18:10:39.290Z,17.36
2017-09-07T18:13:08.585Z,17.20
2017-09-07T18:15:37.765Z,17.25
2017-09-07T18:18:07.562Z,17.24
2017-09-07T18:20:35.917Z,17.25
2017-09-07T18:23:04.742Z,17.23
2017-09-07T18:25:33.097Z,17.33
2017-09-07T18:28:01.440Z,17.29
2017-09-07T18:30:30.397Z,17.17
2017-09-07T18:32:58.742Z,17.26
2017-09-07T18:35:27.095Z,17.26
2017-09-07T18:37:55.720Z,17.27
2017-09-07T18:40:24.087Z,17.20
2017-09-07T18:42:52.485Z,17.25
2017-09-07T18:45:21.744Z,17.23
2017-09-07T18:47:50.094Z,17.28
2017-09-07T18:50:18.477Z,17.20
2017-09-07T18:52:47.579Z,17.13
2017-09-07T18:55:16.993Z,17.11
2017-09-07T18:57:54.715Z,17.14
2017-09-07T19:00:23.100Z,17.03
2017-09-07T19:02:51.444Z,17.08
2017-09-07T19:05:20.683Z,17.03
2017-09-07T19:07:49.062Z,17.01
2017-09-07T19:10:17.404Z,16.79
2017-09-07T19:12:46.516Z,16.75
2017-09-07T19:15:14.857Z,16.86
2017-09-07T19:17:43.764Z,16.76
2017-09-07T19:20:12.861Z,16.75
2017-09-07T19:22:41.361Z,16.77
2017-09-07T19:25:09.770Z,16.78
2017-09-07T19:27:38.130Z,16.79
2017-09-07T19:30:06.909Z,16.75
2017-09-07T19:32:36.011Z,16.74
2017-09-07T19:35:04.340Z,16.76
2017-09-07T19:37:33.460Z,16.67
2017-09-07T19:40:02.606Z,16.68
2017-09-07T19:42:30.948Z,16.66
2017-09-07T19:45:00.058Z,16.75
2017-09-07T19:47:28.464Z,16.58
2017-09-07T19:49:56.801Z,16.59
2017-09-07T19:52:25.423Z,16.58
2017-09-07T19:54:53.740Z,16.58
2017-09-07T19:57:22.059Z,16.48
2017-09-07T19:59:51.173Z,16.43
2017-09-07T20:02:20.374Z,16.41
2017-09-07T20:04:48.778Z,16.33
2017-09-07T20:07:17.140Z,16.47
2017-09-07T20:09:45.803Z,16.37
2017-09-07T20:12:14.185Z,16.33
2017-09-07T20:14:42.575Z,16.28
2017-09-07T20:17:10.915Z,16.40
2017-09-07T20:19:39.250Z,16.28
2017-09-07T20:22:08.494Z,16.33
2017-09-07T20:24:36.850Z,16.24
2017-09-07T20:27:05.467Z,16.21
2017-09-07T20:29:33.792Z,16.28
2017-09-07T20:32:02.187Z,16.40
2017-09-07T20:34:30.556Z,16.26
2017-09-07T20:37:02.125Z,16.24
2017-09-07T20:39:30.505Z,16.18
2017-09-07T20:41:58.855Z,16.14
2017-09-07T20:44:28.455Z,16.14
2017-09-07T20:46:56.797Z,16.20
2017-09-07T20:49:25.146Z,16.20
2017-09-07T20:51:53.510Z,16.13
2017-09-07T20:54:21.833Z,16.10
2017-09-07T20:56:50.183Z,16.11
2017-09-07T20:59:18.515Z,16.10
2017-09-07T21:01:47.015Z,16.12
2017-09-07T21:04:15.421Z,16.10
2017-09-07T21:06:43.750Z,16.07
2017-09-07T21:09:12.863Z,16.08
2017-09-07T21:11:42.939Z,16.14
2017-09-07T21:14:11.292Z,16.18
2017-09-07T21:16:39.635Z,16.18
2017-09-07T21:19:07.985Z,16.12
2017-09-07T21:21:36.507Z,16.12
2017-09-07T21:24:06.663Z,16.06
2017-09-07T21:26:35.037Z,16.05
2017-09-07T21:29:03.384Z,16.07
2017-09-07T21:31:32.509Z,15.93
2017-09-07T21:34:00.855Z,15.93
2017-09-07T21:36:29.983Z,15.95
2017-09-07T21:38:58.330Z,15.97
2017-09-07T21:41:26.663Z,16.07
2017-09-07T21:43:54.999Z,15.93
2017-09-07T21:46:24.102Z,15.95
2017-09-07T21:48:54.626Z,15.91
2017-09-07T21:51:22.953Z,16.05
2017-09-07T21:53:51.279Z,15.92
2017-09-07T21:56:20.387Z,15.90
2017-09-07T21:58:48.710Z,15.96
2017-09-07T22:01:17.070Z,15.92
2017-09-07T22:03:45.452Z,15.89
2017-09-07T22:06:14.047Z,15.89
2017-09-07T22:08:42.363Z,15.84
2017-09-07T22:11:10.698Z,15.72
2017-09-07T22:13:39.062Z,15.75
2017-09-07T22:16:07.397Z,15.55
2017-09-07T22:18:35.739Z,15.64
2017-09-07T22:21:04.072Z,15.64
2017-09-07T22:23:34.030Z,15.61
2017-09-07T22:26:02.356Z,15.32
2017-09-07T22:28:30.735Z,15.29
2017-09-07T22:30:59.853Z,15.32
2017-09-07T22:33:28.198Z,15.26
2017-09-07T22:35:56.786Z,15.07
2017-09-07T22:38:25.178Z,15.01
2017-09-07T22:40:54.560Z,14.96
2017-09-07T22:43:22.900Z,14.87
2017-09-07T22:45:52.185Z,14.71
2017-09-07T22:48:20.572Z,14.73
2017-09-07T22:50:48.912Z,14.72
2017-09-07T22:53:17.247Z,14.77
2017-09-07T22:55:46.344Z,14.80
2017-09-07T22:58:15.104Z,14.57
2017-09-07T23:00:44.095Z,14.53
2017-09-07T23:03:12.456Z,14.50
2017-09-07T23:05:41.551Z,14.48
2017-09-07T23:08:10.663Z,14.35
2017-09-07T23:10:39.785Z,14.41
2017-09-07T23:13:08.127Z,14.24
2017-09-07T23:15:36.468Z,14.24
2017-09-07T23:18:04.805Z,14.13
2017-09-07T23:20:33.909Z,13.94
2017-09-07T23:23:02.268Z,13.88
2017-09-07T23:25:31.467Z,13.84
2017-09-07T23:28:00.898Z,13.74
2017-09-07T23:30:29.218Z,13.66
2017-09-07T23:32:57.530Z,13.61
2017-09-07T23:35:27.531Z,13.51
2017-09-07T23:37:55.875Z,13.58
2017-09-07T23:40:24.214Z,13.56
2017-09-07T23:42:53.294Z,13.53
2017-09-07T23:45:21.639Z,13.46
2017-09-07T23:47:49.972Z,13.54
2017-09-07T23:50:19.104Z,13.52
2017-09-07T23:52:47.450Z,13.49
2017-09-07T23:55:16.534Z,13.48
2017-09-07T23:57:44.875Z,13.53
